Terminal Aerodrome Forecast
Issued by NWS

Home | Current Version | Previous Version | Text Only | Print | Product List | Glossary On
Versions: 1 2 3 4 5 6 7 8 9 10 11 12 13
000
FTUS46 KHNX 261244 AAA
TAFBFL
TAF AMD
KBFL 261244Z 2613/2712 33005KT P6SM SCT045
      TEMPO 2613/2616 BKN045
     FM262100 30009G16KT P6SM FEW250
     FM270300 36005KT P6SM BKN250
     FM270600 VRB03KT P6SM BKN250=

USA.gov is the U.S. government's official web portal to all federal, state and local government web resources and services.